Science Garden, Philippines

11:30 AM PHT on August 31, 2015 (GMT +0800)
Taft Avenue, Manila | | Change Station
CLOSE
Current Station
Personal Weather Station
Location: 2401 Taft Avenue, Manila
Elevation: 276 ft
Nearby Weather Stations

Elev 276 ft 14.57 °N, 120.99 °E | Updated 22 seconds ago

Mostly Cloudy
Mostly Cloudy
86.5 °F
Feels Like 97 °F
N
3.0
Wind Variable Wind from North
Gusts 3.0 mph

Today
High -- | Low -- °F
--% Chance of Precip.
Yesterday
High -- | Low -- °F
Precip. -- in
5:43 AM 6:08 PM
Full, 97% visible
Pressure 29.86 in
Visibility 6.2 miles
Clouds Few 2200 ft
Scattered Clouds 2500 ft
Mostly Cloudy 10000 ft
Heat Index 97 °F
Dew Point 76 °F
Humidity 72%
Rainfall 0.00 in
Snow Depth Not available.
UV 2.7 out of 12
Pollen Not available.
Air Quality Not available.
Flu Activity Not available.
METAR RPLL 310300Z 30006KT 230V350 9999 FEW022CB SCT025 BKN100 30/23 Q1011 NOSIG RMK A2985 CB NE
Pressure 29.86 in
Visibility 6.2 miles
Clouds Few 2200 ft
Scattered Clouds 2500 ft
Mostly Cloudy 10000 ft
Heat Index 97 °F
Dew Point 76 °F
Humidity 72%
Rainfall 0.00 in
Snow Depth Not available.
UV 2.7 out of 12
Pollen Not available.
Air Quality Not available.
Flu Activity Not available.
METAR RPLL 310300Z 30006KT 230V350 9999 FEW022CB SCT025 BKN100 30/23 Q1011 NOSIG RMK A2985 CB NE

10-Day Weather Forecast

×

Almanac

Astronomy

Aug. 31, 2015 Rise Set
Actual Time
Civil Twilight
Nautical Twilight
Astronomical Twilight
Moon
Length of Visible Light
Length of Day
Tomorrow will be .
, % of the Moon is Illuminated

Today's Extremes

Country Highs Country Lows

Community

WunderPhotos

Upload Photos

1,851,175 photos uploaded!

WunderBlogs® & News

Nearby

Air Quality

  Air Quality AQ Index Pollutant
Not available.

Snow Depth

Station Depth Elevation

Earthquake Activity

City Distance Mag. Time & Date
Minimum magnitude displayed is 2.5.

Coastal Water Temperatures

Place Temperature

Stations

Nearby Weather Stations

Station Location Temp. Windchill Dew Point Humidity Wind Precip. Elev Updated Type